Time,TemperatureF,DewpointF,PressureIn,WindDirection,WindDirectionDegrees,WindSpeedMPH,WindSpeedGustMPH,Humidity,HourlyPrecipIn,Conditions,Clouds,dailyrainin,SoftwareType,DateUTC
2013-03-16 00:04:00,69.4,45.3,29.67,South,180,5.0,7.0,42,0.00,,,0.00,Wunderground v.1.15,2013-03-16 05:04:00,
2013-03-16 00:18:00,68.8,45.4,29.67,SSW,202,4.0,5.0,43,0.00,,,0.00,Wunderground v.1.15,2013-03-16 05:18:00,
2013-03-16 00:34:00,68.2,45.4,29.67,SSW,202,4.0,4.0,44,0.00,,,0.00,Wunderground v.1.15,2013-03-16 05:34:00,
2013-03-16 00:48:00,67.7,45.6,29.67,South,177,4.0,4.0,45,0.00,,,0.00,Wunderground v.1.15,2013-03-16 05:48:00,
2013-03-16 01:04:00,67.1,46.2,29.67,SSW,194,3.0,4.0,47,0.00,,,0.00,Wunderground v.1.15,2013-03-16 06:04:00,
2013-03-16 01:18:00,66.8,45.9,29.66,SSW,194,4.0,6.0,47,0.00,,,0.00,Wunderground v.1.15,2013-03-16 06:18:00,
2013-03-16 01:34:00,66.3,46.0,29.67,South,189,3.0,3.0,48,0.00,,,0.00,Wunderground v.1.15,2013-03-16 06:34:00,
2013-03-16 01:48:00,65.9,46.2,29.66,South,184,3.0,3.0,49,0.00,,,0.00,Wunderground v.1.15,2013-03-16 06:48:00,
2013-03-16 02:04:00,65.4,46.3,29.66,South,179,3.0,4.0,50,0.00,,,0.00,Wunderground v.1.15,2013-03-16 07:04:00,
2013-03-16 02:10:00,65.3,46.2,29.66,South,182,3.0,4.0,50,0.00,,,0.00,Wunderground v.1.15,2013-03-16 07:10:00,
2013-03-16 02:16:00,65.1,46.0,29.66,South,178,2.0,5.0,50,0.00,,,0.00,Wunderground v.1.15,2013-03-16 07:16:00,
2013-03-16 02:28:00,64.9,46.3,29.66,South,183,3.0,4.0,51,0.00,,,0.00,Wunderground v.1.15,2013-03-16 07:28:00,
2013-03-16 02:34:00,64.8,46.2,29.66,South,183,3.0,7.0,51,0.00,,,0.00,Wunderground v.1.15,2013-03-16 07:34:00,
2013-03-16 02:40:00,64.5,46.0,29.66,South,183,2.0,3.0,51,0.00,,,0.00,Wunderground v.1.15,2013-03-16 07:40:00,
2013-03-16 02:54:00,64.0,46.0,29.66,South,183,2.0,2.0,52,0.00,,,0.00,Wunderground v.1.15,2013-03-16 07:54:00,
2013-03-16 03:08:00,63.5,46.1,29.66,South,183,2.0,2.0,53,0.00,,,0.00,Wunderground v.1.15,2013-03-16 08:08:00,
2013-03-16 03:20:00,63.1,45.7,29.65,South,183,1.0,3.0,53,0.00,,,0.00,Wunderground v.1.15,2013-03-16 08:20:00,
2013-03-16 03:34:00,62.7,45.8,29.65,South,183,1.0,1.0,54,0.00,,,0.00,Wunderground v.1.15,2013-03-16 08:34:00,
2013-03-16 03:44:00,62.5,45.6,29.65,South,183,2.0,2.0,54,0.00,,,0.00,Wunderground v.1.15,2013-03-16 08:44:00,
2013-03-16 03:58:00,62.1,45.7,29.65,South,183,2.0,4.0,55,0.00,,,0.00,Wunderground v.1.15,2013-03-16 08:58:00,
2013-03-16 04:14:00,62.0,45.6,29.64,South,184,3.0,3.0,55,0.00,,,0.00,Wunderground v.1.15,2013-03-16 09:14:00,
2013-03-16 04:28:00,61.6,45.3,29.63,South,184,2.0,2.0,55,0.00,,,0.00,Wunderground v.1.15,2013-03-16 09:28:00,
2013-03-16 04:44:00,61.3,45.5,29.64,South,184,3.0,5.0,56,0.00,,,0.00,Wunderground v.1.15,2013-03-16 09:44:00,
2013-03-16 04:58:00,61.3,45.5,29.64,South,180,4.0,5.0,56,0.00,,,0.00,Wunderground v.1.15,2013-03-16 09:58:00,
2013-03-16 05:14:00,61.2,45.4,29.63,South,186,3.0,3.0,56,0.00,,,0.00,Wunderground v.1.15,2013-03-16 10:14:00,
2013-03-16 05:38:00,60.8,45.0,29.64,South,186,3.0,3.0,56,0.00,,,0.00,Wunderground v.1.15,2013-03-16 10:38:00,
2013-03-16 05:54:00,60.7,44.9,29.64,South,182,3.0,3.0,56,0.00,,,0.00,Wunderground v.1.15,2013-03-16 10:54:00,
2013-03-16 06:08:00,60.7,44.9,29.64,South,180,3.0,4.0,56,0.00,,,0.00,Wunderground v.1.15,2013-03-16 11:08:00,
2013-03-16 06:20:00,60.6,44.8,29.65,South,180,2.0,2.0,56,0.00,,,0.00,Wunderground v.1.15,2013-03-16 11:20:00,
2013-03-16 06:34:00,60.4,44.6,29.66,South,180,1.0,1.0,56,0.00,,,0.00,Wunderground v.1.15,2013-03-16 11:34:00,
2013-03-16 06:50:00,60.2,44.9,29.69,NNE,14,3.0,4.0,57,0.00,,,0.00,Wunderground v.1.15,2013-03-16 11:50:00,
2013-03-16 07:04:00,59.9,45.1,29.70,NNE,22,1.0,1.0,58,0.00,,,0.00,Wunderground v.1.15,2013-03-16 12:04:00,
2013-03-16 07:18:00,59.3,45.0,29.70,NNE,22,2.0,2.0,59,0.00,,,0.00,Wunderground v.1.15,2013-03-16 12:18:00,
2013-03-16 07:34:00,58.3,44.9,29.70,NE,46,1.0,1.0,61,0.00,,,0.00,Wunderground v.1.15,2013-03-16 12:34:00,
2013-03-16 07:43:00,58.0,45.0,29.71,NE,49,1.0,1.0,62,0.00,,,0.00,Wunderground v.1.15,2013-03-16 12:43:00,
2013-03-16 07:54:00,57.7,45.2,29.72,NE,49,0.0,1.0,63,0.00,,,0.00,Wunderground v.1.15,2013-03-16 12:54:00,